Aviation Digital Data Service (ADDS)

Output produced by METARs form (1423 UTC 21 November 2018)
found at http://aviationweather.gov/metar/data/
 
TAF EPDA 211400Z 2115/2124 09010KT 9999 BKN017 
     PROB40 
     TEMPO 2116/2121 BKN010